Time;durP1;ratioP1;P1;durP2;ratioP2;P2;SDS_P1;SDS_P2;PMS_P1;PMS_P2;Temp;Humidity;BMP_temperature;BMP_pressure;BME280_temperature;BME280_humidity;BME280_pressure;Samples;Min_cycle;Max_cycle;Signal;HPM_P1;HPM_P2
2022/08/03 03:01:14;;;;;;;0.70;0.60;;;22.80;68.90;;;;;;5860130;22;20490;-73
2022/08/03 03:03:41;;;;;;;0.70;0.60;;;22.80;68.70;;;;;;5036899;28;20439;-73
2022/08/03 03:06:10;;;;;;;1.00;0.60;;;22.70;68.70;;;;;;5036869;28;20451;-73
2022/08/03 03:08:37;;;;;;;0.90;0.70;;;22.70;69.00;;;;;;5036724;28;20494;-73
2022/08/03 03:11:04;;;;;;;0.80;0.60;;;22.70;68.90;;;;;;5036695;28;20540;-73
2022/08/03 03:13:32;;;;;;;0.70;0.60;;;22.60;68.70;;;;;;5038127;28;20790;-73
2022/08/03 03:16:02;;;;;;;0.70;0.60;;;22.60;68.70;;;;;;5036675;28;20478;-73
2022/08/03 03:18:31;;;;;;;0.70;0.60;;;22.60;68.70;;;;;;5036656;28;20443;-73
2022/08/03 03:21:00;;;;;;;0.70;0.70;;;22.60;68.80;;;;;;5036433;28;20474;-73
2022/08/03 03:23:28;;;;;;;0.80;0.60;;;22.50;69.00;;;;;;5036508;28;20447;-73
2022/08/03 03:25:57;;;;;;;0.70;0.60;;;22.50;69.20;;;;;;5036210;28;20973;-74
2022/08/03 03:28:24;;;;;;;0.70;0.60;;;22.50;69.30;;;;;;5036440;28;20507;-73
2022/08/03 03:30:51;;;;;;;0.70;0.60;;;22.50;69.50;;;;;;5036328;28;20467;-73
2022/08/03 03:33:18;;;;;;;0.70;0.60;;;22.50;69.30;;;;;;5036363;28;20907;-73
2022/08/03 03:35:47;;;;;;;0.70;0.60;;;22.50;69.60;;;;;;5036314;28;20451;-73
2022/08/03 03:38:13;;;;;;;0.80;0.70;;;22.50;69.90;;;;;;5036250;28;20497;-73
2022/08/03 03:40:40;;;;;;;0.70;0.60;;;22.50;69.90;;;;;;5036169;28;20447;-73
2022/08/03 03:43:08;;;;;;;0.70;0.70;;;22.50;69.80;;;;;;5035872;28;20959;-73
2022/08/03 03:45:36;;;;;;;0.70;0.70;;;22.40;69.80;;;;;;5036091;28;20459;-73
2022/08/03 03:48:04;;;;;;;0.70;0.70;;;22.40;69.90;;;;;;5036008;28;20498;-73
2022/08/03 03:50:31;;;;;;;0.80;0.70;;;22.40;70.10;;;;;;5035864;28;20819;-73
2022/08/03 03:53:00;;;;;;;0.90;0.70;;;22.40;70.10;;;;;;5035976;28;20478;-73
2022/08/03 03:55:27;;;;;;;0.70;0.70;;;22.40;70.50;;;;;;5035943;28;20451;-73
2022/08/03 03:57:54;;;;;;;0.70;0.67;;;22.40;70.40;;;;;;5035917;28;20455;-73
2022/08/03 04:00:21;;;;;;;0.70;0.70;;;22.40;70.30;;;;;;5035839;28;20447;-74
2022/08/03 04:02:48;;;;;;;0.70;0.63;;;22.40;70.20;;;;;;5035672;28;20506;-73
2022/08/03 04:11:02;;;;;;;0.70;0.70;;;22.30;70.30;;;;;;5035026;28;21004;-73
2022/08/03 04:13:37;;;;;;;0.70;0.60;;;22.30;70.30;;;;;;5035630;28;20443;-73
2022/08/03 04:16:04;;;;;;;0.70;0.63;;;22.30;70.50;;;;;;5035570;28;20432;-73
2022/08/03 04:18:34;;;;;;;0.70;0.60;;;22.30;70.80;;;;;;5035482;28;20458;-74
2022/08/03 04:21:04;;;;;;;0.70;0.60;;;22.30;70.90;;;;;;5035394;28;20521;-73
2022/08/03 04:23:35;;;;;;;0.70;0.70;;;22.30;70.80;;;;;;5035406;28;20460;-73
2022/08/03 04:26:03;;;;;;;0.93;0.77;;;22.30;71.00;;;;;;5035349;28;20443;-73
2022/08/03 04:28:32;;;;;;;0.70;0.60;;;22.30;70.90;;;;;;5034984;28;20475;-73
2022/08/03 04:31:00;;;;;;;0.70;0.60;;;22.30;70.90;;;;;;5035149;28;20865;-73
2022/08/03 04:33:31;;;;;;;0.70;0.70;;;22.30;70.90;;;;;;5035187;28;20451;-73
2022/08/03 04:36:00;;;;;;;0.70;0.70;;;22.10;71.20;;;;;;5035174;28;20828;-73
2022/08/03 04:38:29;;;;;;;0.80;0.70;;;22.00;71.20;;;;;;5035075;28;20509;-73
2022/08/03 04:40:58;;;;;;;0.70;0.60;;;22.00;71.10;;;;;;5035006;28;20467;-73
2022/08/03 04:43:25;;;;;;;0.80;0.63;;;22.10;71.00;;;;;;5035066;28;20443;-73
2022/08/03 04:45:53;;;;;;;0.70;0.60;;;22.10;71.00;;;;;;5035025;28;20448;-74
2022/08/03 04:48:20;;;;;;;0.90;0.70;;;22.20;71.10;;;;;;5034945;28;20521;-73
2022/08/03 04:50:47;;;;;;;0.70;0.60;;;22.20;71.00;;;;;;5034495;28;20998;-73
2022/08/03 04:53:14;;;;;;;0.80;0.70;;;22.20;70.90;;;;;;5034897;28;20444;-73
2022/08/03 04:55:41;;;;;;;0.70;0.60;;;22.30;70.80;;;;;;5034858;28;20451;-73
2022/08/03 04:58:09;;;;;;;0.70;0.60;;;22.30;70.80;;;;;;5034726;28;20447;-73
2022/08/03 05:00:36;;;;;;;0.70;0.60;;;22.30;70.80;;;;;;5034363;28;20542;-73
2022/08/03 05:03:02;;;;;;;0.70;0.70;;;22.40;70.70;;;;;;5034657;28;20443;-72
2022/08/03 05:05:29;;;;;;;0.80;0.80;;;22.50;70.50;;;;;;5034597;28;20556;-71
2022/08/03 05:07:56;;;;;;;0.80;0.70;;;22.60;70.70;;;;;;5034549;28;20440;-71
2022/08/03 05:10:22;;;;;;;1.03;0.80;;;22.70;70.60;;;;;;5034383;28;20475;-71
2022/08/03 05:12:50;;;;;;;0.70;0.70;;;22.80;70.20;;;;;;5034502;28;20447;-71
2022/08/03 05:15:18;;;;;;;0.70;0.60;;;23.00;69.90;;;;;;5034419;28;20443;-71
2022/08/03 05:17:45;;;;;;;0.80;0.60;;;23.10;70.00;;;;;;5034401;28;20502;-71
2022/08/03 05:20:12;;;;;;;0.70;0.60;;;23.30;70.00;;;;;;5034191;28;20478;-71
2022/08/03 05:22:38;;;;;;;0.93;0.70;;;23.40;69.80;;;;;;5033883;28;20475;-71
2022/08/03 05:25:05;;;;;;;0.70;0.60;;;23.50;69.80;;;;;;5033918;28;20935;-72
2022/08/03 05:27:32;;;;;;;0.93;0.60;;;23.60;69.60;;;;;;5034255;28;20502;-71
2022/08/03 05:29:59;;;;;;;0.70;0.60;;;23.80;69.70;;;;;;5034014;28;20537;-71
2022/08/03 05:32:27;;;;;;;0.70;0.67;;;23.90;69.50;;;;;;5034055;28;20463;-71
2022/08/03 05:34:53;;;;;;;0.70;0.60;;;24.00;69.10;;;;;;5034068;28;20505;-71
2022/08/03 05:37:20;;;;;;;0.70;0.60;;;24.10;69.00;;;;;;5034087;28;20478;-71
2022/08/03 05:39:47;;;;;;;0.70;0.60;;;24.20;68.40;;;;;;5033786;28;20447;-71
2022/08/03 05:42:15;;;;;;;0.70;0.70;;;24.30;68.60;;;;;;5033836;28;20483;-71
2022/08/03 05:44:42;;;;;;;0.70;0.70;;;24.40;68.60;;;;;;5033847;28;20501;-71
2022/08/03 05:47:09;;;;;;;0.70;0.60;;;24.60;68.30;;;;;;5033825;28;20498;-70
2022/08/03 05:49:37;;;;;;;0.70;0.60;;;24.70;68.30;;;;;;5033682;28;20482;-72
2022/08/03 05:52:04;;;;;;;0.70;0.60;;;24.80;67.10;;;;;;5033642;28;20903;-71
2022/08/03 05:54:31;;;;;;;0.70;0.60;;;24.70;65.90;;;;;;5033595;28;20451;-71
2022/08/03 05:56:57;;;;;;;0.70;0.67;;;24.50;66.50;;;;;;5033657;28;20448;-71
2022/08/03 05:59:24;;;;;;;0.70;0.70;;;24.50;65.90;;;;;;5033304;28;20963;-71
2022/08/03 06:01:51;;;;;;;0.70;0.60;;;24.50;67.00;;;;;;5033317;28;20487;-71
2022/08/03 06:04:18;;;;;;;0.70;0.60;;;24.60;67.40;;;;;;5033514;28;20451;-72
2022/08/03 06:06:47;;;;;;;0.70;0.70;;;24.80;67.00;;;;;;5034669;28;20506;-72
2022/08/03 06:09:14;;;;;;;0.70;0.60;;;25.00;66.00;;;;;;5033416;28;20451;-71
2022/08/03 06:11:41;;;;;;;0.70;0.60;;;25.20;66.30;;;;;;5033393;28;20221;-71
2022/08/03 06:14:07;;;;;;;0.70;0.60;;;25.10;66.40;;;;;;5033602;28;20534;-71
2022/08/03 06:16:34;;;;;;;0.70;0.60;;;25.10;64.30;;;;;;5033438;28;20498;-73
2022/08/03 06:19:01;;;;;;;0.70;0.60;;;25.10;67.00;;;;;;5033413;28;20452;-72
2022/08/03 06:21:28;;;;;;;0.70;0.70;;;25.10;65.30;;;;;;5033023;28;20967;-71
2022/08/03 06:23:55;;;;;;;0.70;0.70;;;25.10;65.00;;;;;;5033344;28;20444;-71
2022/08/03 06:26:24;;;;;;;0.70;0.63;;;25.20;64.70;;;;;;5032993;28;20931;-71
2022/08/03 06:28:51;;;;;;;0.70;0.70;;;25.30;65.50;;;;;;5033356;28;20451;-71
2022/08/03 06:31:17;;;;;;;1.30;0.70;;;25.40;64.30;;;;;;5032755;28;20850;-71
2022/08/03 06:33:44;;;;;;;0.70;0.60;;;25.40;64.30;;;;;;5036013;28;20867;-72
2022/08/03 06:36:10;;;;;;;0.70;0.63;;;25.40;64.10;;;;;;5037209;28;20459;-71
2022/08/03 06:38:37;;;;;;;0.70;0.60;;;25.30;65.20;;;;;;5037313;28;20447;-71
2022/08/03 06:41:05;;;;;;;0.70;0.60;;;25.60;64.60;;;;;;5037173;28;20494;-71
2022/08/03 06:43:34;;;;;;;0.70;0.60;;;25.70;64.40;;;;;;5036919;28;20482;-71
2022/08/03 06:46:01;;;;;;;0.80;0.60;;;25.90;63.60;;;;;;5036960;28;20937;-71
2022/08/03 06:48:27;;;;;;;0.70;0.60;;;25.90;62.50;;;;;;5037225;28;20447;-71
2022/08/03 06:50:54;;;;;;;0.73;0.70;;;26.10;63.40;;;;;;5037575;28;20873;-72
2022/08/03 06:53:21;;;;;;;0.73;0.60;;;26.60;61.70;;;;;;5036733;28;21000;-71
2022/08/03 06:55:47;;;;;;;0.70;0.60;;;26.80;61.20;;;;;;5036660;28;20942;-71
2022/08/03 06:58:15;;;;;;;0.70;0.60;;;27.00;61.30;;;;;;5036657;28;20942;-71
2022/08/03 07:00:42;;;;;;;1.00;0.70;;;27.30;61.10;;;;;;5036399;28;20444;-72
2022/08/03 07:03:08;;;;;;;0.80;0.63;;;27.30;60.90;;;;;;5037077;28;20436;-71
2022/08/03 07:05:35;;;;;;;0.70;0.60;;;27.40;61.30;;;;;;5037000;28;20446;-71
2022/08/03 07:08:02;;;;;;;0.70;0.60;;;27.50;60.50;;;;;;5036870;28;20451;-71
2022/08/03 07:10:29;;;;;;;0.90;0.60;;;27.80;59.10;;;;;;5036555;28;20487;-72
2022/08/03 07:12:56;;;;;;;0.70;0.60;;;27.90;59.20;;;;;;5036466;28;20501;-72
2022/08/03 07:15:24;;;;;;;0.70;0.60;;;27.90;59.70;;;;;;5036686;28;20822;-71
2022/08/03 07:17:51;;;;;;;0.70;0.60;;;28.00;59.40;;;;;;5036266;28;21000;-71
2022/08/03 07:20:18;;;;;;;0.70;0.60;;;28.00;59.50;;;;;;5036573;28;20445;-72
2022/08/03 07:22:45;;;;;;;0.77;0.60;;;28.10;58.90;;;;;;5036440;28;20474;-72
2022/08/03 07:25:12;;;;;;;0.70;0.70;;;28.00;59.50;;;;;;5036425;28;20857;-72
2022/08/03 07:27:38;;;;;;;0.70;0.60;;;27.60;59.70;;;;;;5036423;28;20522;-71
2022/08/03 07:30:08;;;;;;;0.70;0.60;;;27.40;60.00;;;;;;5036301;28;20486;-72
2022/08/03 07:32:36;;;;;;;0.70;0.50;;;27.30;60.70;;;;;;5036302;28;20467;-72
2022/08/03 07:35:03;;;;;;;0.70;0.60;;;27.60;59.60;;;;;;5036307;28;20456;-72
2022/08/03 07:37:30;;;;;;;0.70;0.60;;;27.80;59.40;;;;;;5037088;28;20813;-71
2022/08/03 07:39:57;;;;;;;0.70;0.60;;;28.00;57.90;;;;;;5036261;28;20439;-72
2022/08/03 07:42:23;;;;;;;0.70;0.60;;;28.00;57.30;;;;;;5035782;28;20884;-72
2022/08/03 07:44:50;;;;;;;0.70;0.57;;;28.00;58.30;;;;;;5035761;28;20935;-72
2022/08/03 07:47:18;;;;;;;0.70;0.60;;;28.40;57.70;;;;;;5036045;28;20452;-72
2022/08/03 07:49:46;;;;;;;0.70;0.60;;;28.50;57.60;;;;;;5035656;28;20452;-72
2022/08/03 07:54:57;;;;;;;0.70;0.57;;;28.90;55.50;;;;;;5035978;28;20404;-72
2022/08/03 07:57:24;;;;;;;0.70;0.60;;;28.70;54.80;;;;;;5035825;28;20506;-72
2022/08/03 07:59:51;;;;;;;0.70;0.57;;;28.70;55.60;;;;;;5035844;28;20452;-72
2022/08/03 08:02:17;;;;;;;0.70;0.50;;;28.80;55.00;;;;;;5035563;28;20510;-72
2022/08/03 08:04:44;;;;;;;0.70;0.60;;;28.40;54.50;;;;;;5035797;28;20452;-72
2022/08/03 08:07:12;;;;;;;0.70;0.57;;;28.70;54.40;;;;;;5035717;28;20451;-72
2022/08/03 08:09:39;;;;;;;0.70;0.50;;;29.00;54.10;;;;;;5035644;28;20443;-72
2022/08/03 08:12:06;;;;;;;0.70;0.63;;;29.40;55.10;;;;;;5035484;28;20488;-72
2022/08/03 08:14:33;;;;;;;0.70;0.60;;;29.30;53.50;;;;;;5035757;28;20547;-73
2022/08/03 08:17:00;;;;;;;0.70;0.60;;;29.40;54.20;;;;;;5035808;28;20509;-72
2022/08/03 08:19:27;;;;;;;0.70;0.50;;;29.40;53.00;;;;;;5035497;28;20447;-72
2022/08/03 08:21:54;;;;;;;0.70;0.60;;;29.40;52.30;;;;;;5035534;28;20471;-72
2022/08/03 08:24:21;;;;;;;0.70;0.60;;;29.30;52.40;;;;;;5035477;28;20803;-72
2022/08/03 08:26:48;;;;;;;0.70;0.60;;;29.20;52.60;;;;;;5035265;28;20943;-73
2022/08/03 08:29:15;;;;;;;0.70;0.57;;;29.50;52.40;;;;;;5035060;28;20939;-72
2022/08/03 08:31:42;;;;;;;1.17;0.60;;;29.50;53.00;;;;;;5035309;28;20487;-73
2022/08/03 08:34:08;;;;;;;0.70;0.50;;;29.70;51.40;;;;;;5035394;28;20470;-72
2022/08/03 08:36:35;;;;;;;0.70;0.50;;;29.70;50.60;;;;;;5035272;28;20454;-73
2022/08/03 08:39:02;;;;;;;0.70;0.60;;;29.70;52.40;;;;;;5034907;28;20853;-72
2022/08/03 08:41:33;;;;;;;0.67;0.50;;;29.90;51.60;;;;;;5035078;28;20467;-72
2022/08/03 08:44:00;;;;;;;0.70;0.50;;;29.90;51.50;;;;;;5035509;28;20894;-72
2022/08/03 08:46:28;;;;;;;0.70;0.50;;;29.90;50.30;;;;;;5035168;28;20497;-71
2022/08/03 08:48:55;;;;;;;0.70;0.50;;;30.00;50.10;;;;;;5035021;28;20205;-73
2022/08/03 08:51:23;;;;;;;0.70;0.50;;;30.00;51.00;;;;;;5034905;28;20483;-72
2022/08/03 08:53:52;;;;;;;0.70;0.50;;;30.20;50.60;;;;;;5034806;28;20942;-73
2022/08/03 08:56:21;;;;;;;0.70;0.60;;;30.30;51.50;;;;;;5034478;28;20502;-73
2022/08/03 08:58:52;;;;;;;0.70;0.60;;;30.30;50.50;;;;;;5034609;28;20803;-73
2022/08/03 09:01:20;;;;;;;0.70;0.50;;;30.40;50.40;;;;;;5034811;28;20491;-73
2022/08/03 09:03:47;;;;;;;0.70;0.50;;;30.20;50.20;;;;;;5034876;28;20543;-73
2022/08/03 09:06:14;;;;;;;0.70;0.50;;;30.10;50.50;;;;;;5034743;28;20463;-72
2022/08/03 09:08:41;;;;;;;0.63;0.50;;;30.20;50.40;;;;;;5034514;28;20567;-72
2022/08/03 09:11:08;;;;;;;0.80;0.60;;;30.40;52.20;;;;;;5034366;28;20533;-73
2022/08/03 09:13:35;;;;;;;0.70;0.60;;;30.70;51.80;;;;;;5036062;28;20501;-73
2022/08/03 09:16:14;;;;;;;0.63;0.50;;;30.90;50.50;;;;;;5034335;28;20454;-72
2022/08/03 09:18:42;;;;;;;0.70;0.60;;;31.30;50.10;;;;;;5034369;28;20501;-72
2022/08/03 09:21:18;;;;;;;0.90;0.60;;;31.20;49.70;;;;;;5034321;28;20471;-72
2022/08/03 09:23:46;;;;;;;0.70;0.50;;;31.20;50.10;;;;;;5035513;28;20439;-72
2022/08/03 09:26:19;;;;;;;0.80;0.60;;;31.40;50.20;;;;;;5034176;28;20870;-72
2022/08/03 09:28:46;;;;;;;0.70;0.60;;;31.60;49.10;;;;;;5034317;28;20432;-72
2022/08/03 09:31:14;;;;;;;0.70;0.53;;;31.70;49.00;;;;;;5033783;28;20491;-72
2022/08/03 09:33:47;;;;;;;2.70;0.80;;;31.80;48.80;;;;;;5034406;28;20454;-72
2022/08/03 09:36:36;;;;;;;0.70;0.50;;;31.70;49.70;;;;;;5034475;28;20439;-72
2022/08/03 09:39:05;;;;;;;0.70;0.60;;;31.50;48.90;;;;;;5034491;28;20450;-72
2022/08/03 09:41:32;;;;;;;0.70;0.50;;;31.50;48.80;;;;;;5033932;28;20459;-72
2022/08/03 09:43:58;;;;;;;0.60;0.50;;;31.40;48.80;;;;;;5033982;28;20493;-72
2022/08/03 09:46:30;;;;;;;0.63;0.50;;;31.60;48.30;;;;;;5033917;28;20443;-72
2022/08/03 09:49:09;;;;;;;0.80;0.60;;;31.70;47.20;;;;;;5033836;28;20428;-72
2022/08/03 09:51:36;;;;;;;0.70;0.60;;;31.60;46.10;;;;;;5033685;28;20579;-72
2022/08/03 09:54:03;;;;;;;0.60;0.50;;;31.40;47.80;;;;;;5033800;28;20530;-72
2022/08/03 09:56:41;;;;;;;0.70;0.60;;;31.40;48.80;;;;;;5033696;28;20490;-72
2022/08/03 09:59:08;;;;;;;0.97;0.50;;;31.70;47.30;;;;;;5033724;28;20443;-72
2022/08/03 10:01:38;;;;;;;0.70;0.50;;;32.10;47.90;;;;;;5033304;28;20486;-72
2022/08/03 10:04:05;;;;;;;0.70;0.60;;;32.30;47.90;;;;;;5033564;28;20451;-72
2022/08/03 10:06:32;;;;;;;0.60;0.50;;;32.40;46.40;;;;;;5032823;28;20448;-72
2022/08/03 10:09:09;;;;;;;0.60;0.50;;;32.30;46.90;;;;;;5033153;28;20443;-72
2022/08/03 10:11:36;;;;;;;0.60;0.50;;;32.30;46.80;;;;;;5033375;28;20541;-72
2022/08/03 10:14:05;;;;;;;0.60;0.50;;;32.30;46.70;;;;;;5033441;28;20517;-73
2022/08/03 10:16:35;;;;;;;0.70;0.60;;;32.50;47.50;;;;;;5033072;28;20452;-72
2022/08/03 10:19:03;;;;;;;0.70;0.60;;;32.50;45.60;;;;;;5033405;28;20500;-73
2022/08/03 10:21:33;;;;;;;0.70;0.60;;;32.50;46.10;;;;;;5033293;28;20466;-72
2022/08/03 10:24:03;;;;;;;0.70;0.63;;;32.60;46.50;;;;;;5033679;28;20447;-71
2022/08/03 10:26:32;;;;;;;0.70;0.60;;;32.30;45.70;;;;;;5033468;28;20443;-73
2022/08/03 10:29:01;;;;;;;0.90;0.60;;;32.30;46.10;;;;;;5033450;28;20501;-72
2022/08/03 10:31:34;;;;;;;0.70;0.60;;;32.30;47.40;;;;;;5033246;28;20483;-73
2022/08/03 10:34:04;;;;;;;0.70;0.60;;;32.60;46.90;;;;;;5033952;28;20486;-72
2022/08/03 10:36:33;;;;;;;0.70;0.50;;;32.40;46.20;;;;;;5033214;28;20490;-73
2022/08/03 10:39:01;;;;;;;0.70;0.60;;;32.10;47.00;;;;;;5033317;28;20938;-73
2022/08/03 10:41:37;;;;;;;0.63;0.57;;;32.50;47.80;;;;;;5032929;28;20840;-74
2022/08/03 10:44:08;;;;;;;0.70;0.60;;;32.60;47.20;;;;;;5033322;28;20440;-73
2022/08/03 10:46:38;;;;;;;0.70;0.60;;;32.50;48.10;;;;;;5033695;28;20432;-73
2022/08/03 10:49:07;;;;;;;0.80;0.60;;;32.40;47.30;;;;;;5033131;28;20907;-73
2022/08/03 10:51:34;;;;;;;0.70;0.50;;;32.20;48.10;;;;;;5033061;28;20482;-73
2022/08/03 10:54:01;;;;;;;0.80;0.60;;;32.40;47.50;;;;;;5033214;28;20443;-73
2022/08/03 10:59:59;;;;;;;0.70;0.50;;;32.50;47.10;;;;;;5033599;28;20535;-72
2022/08/03 11:02:58;;;;;;;0.80;0.60;;;32.40;48.40;;;;;;5033166;28;20629;-74
2022/08/03 11:05:28;;;;;;;0.70;0.50;;;32.30;48.00;;;;;;5032670;28;21001;-73
2022/08/03 11:08:23;;;;;;;0.70;0.67;;;32.40;47.90;;;;;;5032784;28;20546;-73
2022/08/03 11:10:51;;;;;;;0.70;0.60;;;32.60;46.70;;;;;;5032966;28;20478;-71
2022/08/03 11:13:19;;;;;;;0.67;0.50;;;33.00;46.20;;;;;;5033458;28;21029;-72
2022/08/03 11:15:48;;;;;;;0.67;0.57;;;33.20;45.30;;;;;;5032901;28;20456;-72
2022/08/03 11:18:15;;;;;;;0.90;0.60;;;33.10;46.20;;;;;;5033317;28;20501;-69
2022/08/03 11:20:49;;;;;;;0.70;0.60;;;32.90;47.20;;;;;;5036516;28;20447;-70
2022/08/03 11:23:18;;;;;;;0.70;0.57;;;33.20;46.50;;;;;;5036774;28;20444;-70
2022/08/03 11:26:15;;;;;;;0.70;0.60;;;33.00;46.90;;;;;;5038126;28;20451;-71
2022/08/03 11:28:43;;;;;;;0.70;0.50;;;32.80;46.90;;;;;;5036176;28;20926;-74
2022/08/03 11:31:56;;;;;;;0.70;0.57;;;32.40;47.30;;;;;;5036246;28;20521;-74
2022/08/03 11:34:23;;;;;;;0.60;0.50;;;32.70;47.80;;;;;;5036391;28;20458;-74
2022/08/03 11:37:22;;;;;;;0.70;0.60;;;32.60;47.30;;;;;;5036291;28;20447;-73
2022/08/03 11:39:54;;;;;;;0.80;0.57;;;32.70;46.30;;;;;;5037187;28;20436;-74
2022/08/03 11:42:40;;;;;;;0.70;0.60;;;32.60;46.70;;;;;;5036226;28;20525;-74
2022/08/03 11:45:08;;;;;;;0.73;0.60;;;32.30;46.90;;;;;;5036226;28;20451;-73
2022/08/03 11:47:39;;;;;;;0.80;0.60;;;32.20;47.30;;;;;;5035832;28;20997;-75
2022/08/03 11:50:06;;;;;;;0.60;0.50;;;32.40;46.90;;;;;;5036100;28;20617;-74
2022/08/03 11:52:40;;;;;;;0.60;0.50;;;32.40;47.20;;;;;;5035985;28;20537;-74
2022/08/03 11:55:12;;;;;;;0.60;0.50;;;32.80;45.70;;;;;;5036183;28;20470;-73
2022/08/03 11:57:39;;;;;;;0.60;0.50;;;33.00;46.50;;;;;;5036141;28;20436;-73
2022/08/03 12:00:29;;;;;;;0.60;0.50;;;33.10;48.00;;;;;;5036039;28;20474;-73
2022/08/03 12:02:57;;;;;;;0.70;0.70;;;33.20;45.70;;;;;;5035768;28;20502;-73
2022/08/03 12:05:52;;;;;;;0.60;0.50;;;33.30;45.40;;;;;;5035761;28;20502;-72
2022/08/03 12:08:30;;;;;;;0.60;0.50;;;33.20;45.90;;;;;;5000681;28;20954;-72
2022/08/03 12:10:59;;;;;;;0.60;0.50;;;33.30;46.50;;;;;;5035255;28;20495;-72
2022/08/03 12:13:26;;;;;;;0.70;0.60;;;33.20;45.00;;;;;;5035574;28;20463;-72
2022/08/03 12:15:54;;;;;;;0.80;0.80;;;33.30;46.10;;;;;;5035668;28;20535;-72
2022/08/03 12:18:22;;;;;;;0.60;0.50;;;33.50;45.10;;;;;;5035601;28;20501;-72
2022/08/03 12:20:50;;;;;;;0.70;0.60;;;33.30;45.00;;;;;;5035166;28;20990;-72
2022/08/03 12:23:17;;;;;;;0.60;0.50;;;33.40;43.70;;;;;;5035475;28;20501;-72
2022/08/03 12:25:46;;;;;;;0.80;0.80;;;33.60;45.20;;;;;;5035454;28;20443;-72
2022/08/03 12:28:17;;;;;;;0.60;0.60;;;33.50;43.50;;;;;;5035444;28;20505;-72
2022/08/03 12:30:45;;;;;;;0.70;0.60;;;33.10;44.50;;;;;;5034404;28;20476;-72
2022/08/03 12:33:20;;;;;;;0.67;0.50;;;33.10;44.90;;;;;;5035500;28;20486;-73
2022/08/03 12:35:49;;;;;;;0.70;0.60;;;33.20;44.00;;;;;;5035083;28;20454;-72
2022/08/03 12:38:21;;;;;;;0.63;0.50;;;33.30;44.00;;;;;;5035267;28;20455;-73
2022/08/03 12:40:58;;;;;;;0.60;0.50;;;33.40;44.80;;;;;;5035170;28;20499;-73
2022/08/03 12:43:25;;;;;;;0.70;0.60;;;33.50;43.60;;;;;;5035138;28;20427;-72
2022/08/03 12:46:06;;;;;;;0.60;0.50;;;33.60;44.30;;;;;;5034940;28;20534;-73
2022/08/03 12:48:32;;;;;;;0.60;0.50;;;33.90;43.30;;;;;;5034668;28;20494;-72
2022/08/03 12:51:08;;;;;;;0.60;0.50;;;34.20;42.90;;;;;;5034857;28;20466;-72
2022/08/03 12:53:34;;;;;;;0.60;0.53;;;34.40;43.20;;;;;;5034940;28;20803;-72
2022/08/03 12:56:03;;;;;;;0.70;0.50;;;34.70;43.40;;;;;;5034491;28;20843;-73
2022/08/03 12:58:35;;;;;;;0.60;0.50;;;34.80;42.40;;;;;;5034775;28;20521;-72
2022/08/03 13:01:03;;;;;;;1.20;0.60;;;35.00;40.70;;;;;;5034311;28;20862;-72
2022/08/03 13:03:40;;;;;;;0.63;0.60;;;35.30;42.50;;;;;;5034690;28;20434;-72
2022/08/03 13:06:11;;;;;;;1.00;0.60;;;35.50;42.50;;;;;;5034681;28;20510;-73
2022/08/03 13:08:38;;;;;;;0.70;0.50;;;35.60;41.60;;;;;;5034592;28;20493;-72
2022/08/03 13:11:20;;;;;;;0.70;0.50;;;35.30;40.10;;;;;;5034131;28;20474;-72
2022/08/03 13:13:46;;;;;;;0.63;0.50;;;35.00;41.30;;;;;;5034500;28;20424;-73
2022/08/03 13:16:13;;;;;;;0.70;0.60;;;34.80;41.00;;;;;;5034396;28;20521;-73
2022/08/03 13:18:40;;;;;;;0.60;0.53;;;34.70;42.60;;;;;;5034363;28;20439;-73
2022/08/03 13:21:06;;;;;;;0.70;0.60;;;35.00;42.60;;;;;;5034267;28;20470;-72
2022/08/03 13:23:33;;;;;;;0.60;0.50;;;34.80;40.70;;;;;;5034273;28;20444;-72
2022/08/03 13:26:00;;;;;;;0.60;0.50;;;34.30;41.90;;;;;;5034257;28;20479;-72
2022/08/03 13:28:28;;;;;;;0.60;0.50;;;34.20;40.90;;;;;;5034169;28;20443;-72
2022/08/03 13:30:55;;;;;;;0.70;0.60;;;34.30;41.50;;;;;;5034038;28;20463;-72
2022/08/03 13:33:21;;;;;;;0.70;0.50;;;34.20;41.80;;;;;;5034031;28;20529;-73
2022/08/03 13:35:48;;;;;;;0.60;0.50;;;34.40;43.30;;;;;;5033736;28;20448;-73
2022/08/03 13:38:15;;;;;;;0.70;0.50;;;34.80;42.60;;;;;;5033975;28;20447;-72
2022/08/03 13:40:41;;;;;;;0.60;0.50;;;34.90;42.90;;;;;;5033647;28;20439;-73
2022/08/03 13:43:08;;;;;;;0.70;0.50;;;34.90;42.50;;;;;;5033824;28;20447;-72
2022/08/03 13:45:36;;;;;;;0.60;0.50;;;34.50;42.60;;;;;;5033862;28;20493;-73
2022/08/03 13:48:03;;;;;;;0.70;0.50;;;34.50;42.70;;;;;;5033557;28;20451;-75
2022/08/03 13:50:31;;;;;;;0.60;0.50;;;34.30;42.20;;;;;;5033425;28;20447;-75
2022/08/03 13:52:58;;;;;;;0.60;0.50;;;34.10;42.50;;;;;;5033402;28;20882;-75
2022/08/03 13:55:25;;;;;;;1.43;0.60;;;34.30;41.50;;;;;;5033408;28;20993;-75
2022/08/03 13:57:52;;;;;;;0.80;0.60;;;34.20;43.00;;;;;;5033378;28;20444;-72
2022/08/03 14:00:22;;;;;;;0.60;0.60;;;33.90;42.50;;;;;;5033641;28;20451;-72
2022/08/03 14:02:50;;;;;;;1.53;0.60;;;33.90;43.10;;;;;;5033579;28;20557;-72
2022/08/03 14:05:17;;;;;;;0.90;0.60;;;34.00;42.10;;;;;;5033471;28;20513;-72
2022/08/03 14:07:44;;;;;;;0.70;0.60;;;34.20;42.80;;;;;;5033938;28;20459;-72
2022/08/03 14:10:11;;;;;;;0.70;0.53;;;34.10;42.70;;;;;;5033530;28;20455;-72
2022/08/03 14:12:38;;;;;;;0.60;0.50;;;34.20;42.10;;;;;;5033233;28;20535;-72
2022/08/03 14:15:08;;;;;;;0.60;0.50;;;34.00;41.90;;;;;;5033468;28;20499;-72
2022/08/03 14:17:35;;;;;;;0.70;0.50;;;34.10;41.80;;;;;;5033540;28;20436;-72
2022/08/03 14:20:05;;;;;;;0.60;0.50;;;34.30;41.50;;;;;;5033118;28;20863;-72
2022/08/03 14:22:32;;;;;;;0.97;0.60;;;34.40;41.10;;;;;;5033026;28;21045;-73
2022/08/03 14:24:58;;;;;;;0.90;0.60;;;34.60;41.10;;;;;;5033324;28;20451;-72
2022/08/03 14:27:25;;;;;;;0.70;0.60;;;34.80;42.20;;;;;;5033799;28;20850;-72
2022/08/03 14:29:52;;;;;;;0.60;0.50;;;35.10;41.80;;;;;;5033305;28;20451;-72
2022/08/03 14:32:18;;;;;;;0.60;0.53;;;34.80;40.80;;;;;;5033118;28;20510;-72
2022/08/03 14:34:45;;;;;;;0.60;0.57;;;34.90;40.60;;;;;;5033253;28;20447;-72
2022/08/03 14:37:13;;;;;;;0.70;0.60;;;34.70;40.00;;;;;;5033200;28;20449;-73
2022/08/03 14:39:40;;;;;;;0.70;0.60;;;34.90;41.60;;;;;;5033235;28;20450;-72
2022/08/03 14:42:07;;;;;;;0.70;0.60;;;35.00;40.50;;;;;;5032936;28;20463;-72
2022/08/03 14:44:33;;;;;;;0.70;0.60;;;35.00;41.00;;;;;;5033177;28;20497;-72
2022/08/03 14:47:00;;;;;;;0.60;0.50;;;34.40;42.10;;;;;;5033202;28;20497;-72
2022/08/03 14:49:27;;;;;;;0.60;0.50;;;34.60;42.70;;;;;;5033058;28;20443;-71
2022/08/03 14:51:54;;;;;;;0.67;0.57;;;34.80;41.60;;;;;;5032976;28;20498;-72
2022/08/03 14:54:22;;;;;;;0.70;0.50;;;34.40;42.70;;;;;;5035401;28;20447;-72
2022/08/03 14:56:48;;;;;;;0.60;0.50;;;34.70;42.10;;;;;;5037281;28;20446;-72
2022/08/03 14:59:15;;;;;;;0.60;0.50;;;34.90;41.30;;;;;;5036994;28;20446;-72
2022/08/03 15:01:41;;;;;;;0.70;0.60;;;34.80;42.20;;;;;;5036604;28;20482;-71
2022/08/03 15:04:08;;;;;;;0.70;0.50;;;34.90;42.10;;;;;;5036861;28;20251;-71
2022/08/03 15:06:35;;;;;;;0.60;0.50;;;34.80;41.50;;;;;;5036549;28;20961;-71
2022/08/03 15:09:02;;;;;;;0.70;0.60;;;34.70;42.30;;;;;;5036468;28;20826;-72
2022/08/03 15:11:30;;;;;;;0.70;0.50;;;34.70;42.00;;;;;;5036912;28;20869;-72
2022/08/03 15:13:56;;;;;;;0.60;0.50;;;34.80;41.60;;;;;;5060939;23;20903;-74
2022/08/03 15:16:23;;;;;;;0.60;0.50;;;34.90;41.30;;;;;;5036230;28;20815;-75
2022/08/03 15:18:49;;;;;;;0.70;0.60;;;34.70;41.30;;;;;;5037124;28;20455;-75
2022/08/03 15:21:16;;;;;;;1.00;0.50;;;35.20;41.50;;;;;;5036470;28;20799;-75
2022/08/03 15:23:43;;;;;;;0.70;0.60;;;35.30;40.50;;;;;;5036060;28;20875;-75
2022/08/03 15:26:09;;;;;;;0.77;0.70;;;35.60;40.00;;;;;;5038592;28;20446;-76
2022/08/03 15:28:37;;;;;;;0.70;0.60;;;36.00;39.90;;;;;;5037005;28;20818;-75
2022/08/03 15:31:05;;;;;;;0.70;0.50;;;36.50;39.30;;;;;;5037390;28;20521;-74
2022/08/03 15:33:32;;;;;;;0.80;0.50;;;36.50;39.30;;;;;;5036249;28;20570;-74
2022/08/03 15:35:59;;;;;;;0.90;0.60;;;36.70;39.10;;;;;;5036624;28;20447;-74
2022/08/03 15:38:26;;;;;;;0.70;0.50;;;36.60;39.40;;;;;;5036202;28;20537;-74
2022/08/03 15:40:54;;;;;;;0.67;0.50;;;36.60;39.80;;;;;;5036103;28;20476;-74
2022/08/03 15:43:21;;;;;;;0.70;0.50;;;36.60;40.20;;;;;;5035923;28;20463;-73
2022/08/03 15:45:49;;;;;;;1.00;0.60;;;36.40;39.90;;;;;;5036011;28;20500;-73
2022/08/03 15:48:15;;;;;;;0.60;0.50;;;36.40;39.90;;;;;;5035550;28;20971;-73
2022/08/03 15:50:42;;;;;;;0.70;0.60;;;35.70;40.70;;;;;;5035634;28;20447;-74
2022/08/03 15:53:09;;;;;;;0.67;0.53;;;35.10;41.20;;;;;;5035537;28;20478;-76
2022/08/03 15:55:36;;;;;;;0.60;0.50;;;34.70;41.40;;;;;;5035681;28;20518;-74
2022/08/03 15:58:02;;;;;;;2.40;0.63;;;35.00;41.70;;;;;;5035710;28;20504;-75
2022/08/03 16:00:29;;;;;;;0.60;0.50;;;35.10;41.20;;;;;;5035872;28;20451;-74
2022/08/03 16:02:58;;;;;;;0.70;0.60;;;35.00;41.60;;;;;;5035409;28;20931;-76
2022/08/03 16:05:24;;;;;;;0.70;0.50;;;34.70;41.90;;;;;;5034284;28;20819;-75
2022/08/03 16:07:52;;;;;;;0.87;0.60;;;34.40;42.20;;;;;;5035404;28;20942;-76